createdAt,value
2022-12-18T00:00:16.150Z,-2.03
2022-12-18T00:02:45.533Z,-2.02
2022-12-18T00:05:13.598Z,-1.99
2022-12-18T00:07:41.557Z,-2.01
2022-12-18T00:10:10.273Z,-1.99
2022-12-18T00:12:38.337Z,-1.98
2022-12-18T00:15:56.959Z,-1.98
2022-12-18T00:18:27.163Z,-1.98
2022-12-18T00:21:20.423Z,-2.01
2022-12-18T00:23:49.641Z,-1.99
2022-12-18T00:26:20.786Z,-1.98
2022-12-18T00:28:51.596Z,-2.01
2022-12-18T00:31:21.768Z,-2.03
2022-12-18T00:33:54.161Z,-2.04
2022-12-18T00:36:25.390Z,-2.06
2022-12-18T00:38:55.760Z,-2.05
2022-12-18T00:41:42.223Z,-2.06
2022-12-18T00:44:12.285Z,-2.08
2022-12-18T00:46:41.599Z,-2.10
2022-12-18T00:49:11.877Z,-2.14
2022-12-18T00:51:39.983Z,-2.16
2022-12-18T00:54:08.063Z,-2.17
2022-12-18T00:56:48.035Z,-2.17
2022-12-18T00:59:17.876Z,-2.17
2022-12-18T01:01:46.502Z,-2.19
2022-12-18T01:04:16.672Z,-2.24
2022-12-18T01:06:47.051Z,-2.25
2022-12-18T01:09:15.150Z,-2.26
2022-12-18T01:11:43.225Z,-2.23
2022-12-18T01:14:12.600Z,-2.27
2022-12-18T01:16:40.817Z,-2.28
2022-12-18T01:19:09.144Z,-2.30
2022-12-18T01:21:38.524Z,-2.31
2022-12-18T01:24:07.290Z,-2.31
2022-12-18T01:26:35.368Z,-2.34
2022-12-18T01:29:03.459Z,-2.33
2022-12-18T01:31:34.137Z,-2.34
2022-12-18T01:34:05.258Z,-2.34
2022-12-18T01:36:34.671Z,-2.36
2022-12-18T01:39:06.288Z,-2.35
2022-12-18T01:41:49.160Z,-2.36
2022-12-18T01:44:54.702Z,-2.39
2022-12-18T01:47:26.239Z,-2.38
2022-12-18T01:49:55.342Z,-2.38
2022-12-18T01:52:24.247Z,-2.43
2022-12-18T01:54:55.158Z,-2.46
2022-12-18T01:57:24.084Z,-2.47
2022-12-18T01:59:55.559Z,-2.47
2022-12-18T02:02:24.227Z,-2.49
2022-12-18T02:04:53.769Z,-2.50
2022-12-18T02:07:33.393Z,-2.53
2022-12-18T02:10:08.859Z,-2.56
2022-12-18T02:12:45.120Z,-2.55
2022-12-18T02:15:18.587Z,-2.56
2022-12-18T02:17:54.101Z,-2.57
2022-12-18T02:20:26.773Z,-2.58
2022-12-18T02:23:06.419Z,-2.60
2022-12-18T02:25:55.319Z,-2.59
2022-12-18T02:28:27.931Z,-2.60
2022-12-18T02:31:01.715Z,-2.62
2022-12-18T02:33:32.703Z,-2.63
2022-12-18T02:36:03.679Z,-2.64
2022-12-18T02:38:35.904Z,-2.64
2022-12-18T02:41:13.646Z,-2.67
2022-12-18T02:43:42.582Z,-2.68
2022-12-18T02:46:32.447Z,-2.69
2022-12-18T02:49:13.558Z,-2.67
2022-12-18T02:51:50.960Z,-2.67
2022-12-18T02:54:28.972Z,-2.65
2022-12-18T02:57:02.809Z,-2.68
2022-12-18T02:59:40.472Z,-2.67
2022-12-18T03:02:19.418Z,-2.67
2022-12-18T03:04:53.527Z,-2.64
2022-12-18T03:07:28.058Z,-2.65
2022-12-18T03:09:58.673Z,-2.71
2022-12-18T03:12:34.530Z,-2.71
2022-12-18T03:15:06.756Z,-2.68
2022-12-18T03:17:35.953Z,-2.68
2022-12-18T03:20:09.517Z,-2.68
2022-12-18T03:22:40.411Z,-2.69
2022-12-18T03:25:11.995Z,-2.71
2022-12-18T03:27:50.051Z,-2.71
2022-12-18T03:30:19.878Z,-2.71
2022-12-18T03:32:55.539Z,-2.68
2022-12-18T03:35:30.770Z,-2.65
2022-12-18T03:37:59.505Z,-2.63
2022-12-18T03:40:37.389Z,-2.57
2022-12-18T03:43:11.967Z,-2.49
2022-12-18T03:45:49.910Z,-2.37
2022-12-18T03:48:24.663Z,-2.21
2022-12-18T03:50:59.419Z,-2.21
2022-12-18T03:53:35.309Z,-2.13
2022-12-18T03:56:06.069Z,-2.08
2022-12-18T03:58:42.268Z,-2.02
2022-12-18T04:01:26.614Z,-1.98
2022-12-18T04:03:57.158Z,-1.96
2022-12-18T04:06:26.384Z,-1.89
2022-12-18T04:08:55.092Z,-1.89
2022-12-18T04:11:26.302Z,-1.82
2022-12-18T04:13:59.829Z,-1.83
2022-12-18T04:16:28.317Z,-1.81
2022-12-18T04:19:00.350Z,-1.82
2022-12-18T04:21:31.841Z,-1.80
2022-12-18T04:23:59.873Z,-1.74
2022-12-18T04:26:29.759Z,-1.73
2022-12-18T04:29:20.183Z,-1.69
2022-12-18T04:31:48.900Z,-1.69
2022-12-18T04:34:17.877Z,-1.70
2022-12-18T04:36:51.805Z,-1.72
2022-12-18T04:39:20.226Z,-1.71
2022-12-18T04:41:50.717Z,-1.69
2022-12-18T04:44:20.611Z,-1.69
2022-12-18T04:46:48.611Z,-1.68
2022-12-18T04:49:42.353Z,-1.68
2022-12-18T04:52:10.437Z,-1.68
2022-12-18T04:54:38.435Z,-1.64
2022-12-18T04:57:06.386Z,-1.67
2022-12-18T04:59:35.771Z,-1.62
2022-12-18T05:02:04.035Z,-1.60
2022-12-18T05:04:32.272Z,-1.58
2022-12-18T05:07:00.236Z,-1.56
2022-12-18T05:09:28.198Z,-1.57
2022-12-18T05:11:56.230Z,-1.55
2022-12-18T05:14:24.230Z,-1.53
2022-12-18T05:16:57.923Z,-1.49
2022-12-18T05:19:28.577Z,-1.47
2022-12-18T05:22:21.290Z,-1.43
2022-12-18T05:24:49.386Z,-1.41
2022-12-18T05:27:17.435Z,-1.38
2022-12-18T05:29:45.413Z,-1.31
2022-12-18T05:32:14.709Z,-1.18
2022-12-18T05:34:42.648Z,-1.17
2022-12-18T05:37:10.607Z,-1.09
2022-12-18T05:39:38.610Z,-1.01
2022-12-18T05:42:06.652Z,-0.97
2022-12-18T05:44:35.004Z,-0.86
2022-12-18T05:47:03.067Z,-0.86
2022-12-18T05:49:32.555Z,-0.80
2022-12-18T05:52:00.492Z,-0.78
2022-12-18T05:54:29.264Z,-0.78
2022-12-18T05:56:57.255Z,-0.74
2022-12-18T05:59:25.528Z,-0.78
2022-12-18T06:01:53.691Z,-0.75
2022-12-18T06:04:22.009Z,-0.76
2022-12-18T06:06:51.339Z,-0.71
2022-12-18T06:09:19.301Z,-0.59
2022-12-18T06:11:47.243Z,-0.66
2022-12-18T06:14:18.216Z,-0.61
2022-12-18T06:16:46.367Z,-0.62
2022-12-18T06:19:17.343Z,-0.55
2022-12-18T06:21:45.563Z,-0.46
2022-12-18T06:24:14.975Z,-0.42
2022-12-18T06:26:42.928Z,-0.43
2022-12-18T06:29:11.055Z,-0.38
2022-12-18T06:31:39.060Z,-0.30
2022-12-18T06:34:07.212Z,-0.23
2022-12-18T06:36:35.190Z,-0.24
2022-12-18T06:39:30.511Z,-0.16
2022-12-18T06:41:58.458Z,-0.17
2022-12-18T06:44:26.425Z,-0.19
2022-12-18T06:46:54.362Z,-0.07
2022-12-18T06:49:26.115Z,-0.07
2022-12-18T06:51:56.890Z,-0.02
2022-12-18T06:54:24.862Z,-0.01
2022-12-18T06:56:54.481Z,0.02
2022-12-18T06:59:22.438Z,0.07
2022-12-18T07:01:50.649Z,0.01
2022-12-18T07:04:18.885Z,0.06
2022-12-18T07:06:46.914Z,0.07
2022-12-18T07:09:14.862Z,0.04
2022-12-18T07:11:42.821Z,0.07
2022-12-18T07:14:12.196Z,0.16
2022-12-18T07:16:40.222Z,0.12
2022-12-18T07:19:08.251Z,0.13
2022-12-18T07:21:36.215Z,0.15
2022-12-18T07:24:04.377Z,0.19
2022-12-18T07:26:33.397Z,0.21
2022-12-18T07:29:01.850Z,0.19
2022-12-18T07:31:31.311Z,0.25
2022-12-18T07:33:59.360Z,0.25
2022-12-18T07:36:27.340Z,0.23
2022-12-18T07:38:55.439Z,0.25
2022-12-18T07:41:23.536Z,0.36
2022-12-18T07:43:51.518Z,0.37
2022-12-18T07:46:19.743Z,0.30
2022-12-18T07:48:50.310Z,0.34
2022-12-18T07:51:18.785Z,0.33
2022-12-18T07:53:49.314Z,0.31
2022-12-18T07:56:29.583Z,0.40
2022-12-18T07:58:59.371Z,0.38
2022-12-18T08:01:27.594Z,0.43
2022-12-18T08:03:57.148Z,0.42
2022-12-18T08:06:25.371Z,0.39
2022-12-18T08:08:54.737Z,0.43
2022-12-18T08:11:23.756Z,0.40
2022-12-18T08:13:52.154Z,0.38
2022-12-18T08:16:20.912Z,0.36
2022-12-18T08:19:15.968Z,0.40
2022-12-18T08:21:48.100Z,0.38
2022-12-18T08:24:16.067Z,0.36
2022-12-18T08:27:00.881Z,0.37
2022-12-18T08:29:32.899Z,0.43
2022-12-18T08:32:00.962Z,0.36
2022-12-18T08:34:33.295Z,0.34
2022-12-18T08:37:01.318Z,0.40
2022-12-18T08:39:29.325Z,0.41
2022-12-18T08:42:14.856Z,0.47
2022-12-18T08:44:43.990Z,0.44
2022-12-18T08:47:11.989Z,0.45
2022-12-18T08:49:41.521Z,0.48
2022-12-18T08:52:09.912Z,0.46
2022-12-18T08:54:37.869Z,0.47
2022-12-18T08:57:05.837Z,0.48
2022-12-18T08:59:33.771Z,0.47
2022-12-18T09:02:01.944Z,0.49
2022-12-18T09:04:30.112Z,0.48
2022-12-18T09:07:24.822Z,0.52
2022-12-18T09:09:52.924Z,0.55
2022-12-18T09:12:21.156Z,0.59
2022-12-18T09:14:49.138Z,0.57
2022-12-18T09:17:17.275Z,0.56
2022-12-18T09:19:45.365Z,0.61
2022-12-18T09:22:13.537Z,0.63
2022-12-18T09:24:43.818Z,0.65
2022-12-18T09:27:11.809Z,0.67
2022-12-18T09:29:39.844Z,0.69
2022-12-18T09:32:07.887Z,0.72
2022-12-18T09:34:36.250Z,0.74
2022-12-18T09:37:04.324Z,0.74
2022-12-18T09:39:32.329Z,0.75
2022-12-18T09:42:01.805Z,0.79
2022-12-18T09:44:32.338Z,0.80
2022-12-18T09:47:12.635Z,0.83
2022-12-18T09:49:44.479Z,0.85
2022-12-18T09:52:17.898Z,0.87
2022-12-18T09:54:51.130Z,0.89
2022-12-18T09:57:23.856Z,0.91
2022-12-18T09:59:57.101Z,0.91
2022-12-18T10:02:27.132Z,0.95
2022-12-18T10:05:08.756Z,0.97
2022-12-18T10:07:50.034Z,0.98
2022-12-18T10:10:29.480Z,1.02
2022-12-18T10:13:05.489Z,1.04
2022-12-18T10:15:42.029Z,1.09
2022-12-18T10:18:28.057Z,1.11
2022-12-18T10:21:02.295Z,1.11
2022-12-18T10:23:44.932Z,1.13
2022-12-18T10:26:16.446Z,1.16
2022-12-18T10:28:47.017Z,1.20
2022-12-18T10:31:18.127Z,1.21
2022-12-18T10:33:46.027Z,1.21
2022-12-18T10:36:14.295Z,1.25
2022-12-18T10:38:44.290Z,1.22
2022-12-18T10:41:27.877Z,1.26
2022-12-18T10:44:19.015Z,1.28
2022-12-18T10:46:47.978Z,1.31
2022-12-18T10:49:25.766Z,1.35
2022-12-18T10:52:06.494Z,1.37
2022-12-18T10:54:37.435Z,1.39
2022-12-18T10:57:36.851Z,1.40
2022-12-18T11:00:26.650Z,1.44
2022-12-18T11:02:56.728Z,1.50
2022-12-18T11:05:32.284Z,1.47
2022-12-18T11:08:01.200Z,1.48
2022-12-18T11:10:33.783Z,1.51
2022-12-18T11:13:13.824Z,1.54
2022-12-18T11:15:43.907Z,1.55
2022-12-18T11:18:21.034Z,1.57
2022-12-18T11:20:58.496Z,1.62
2022-12-18T11:23:28.664Z,1.72
2022-12-18T11:25:59.509Z,1.74
2022-12-18T11:28:30.935Z,1.76
2022-12-18T11:31:21.241Z,1.82
2022-12-18T11:34:26.872Z,1.86
2022-12-18T11:36:46.808Z,1.90
2022-12-18T11:39:20.305Z,2.04
2022-12-18T11:42:13.905Z,1.97
2022-12-18T11:44:50.236Z,1.97
2022-12-18T11:47:30.717Z,2.03
2022-12-18T11:50:02.769Z,2.00
2022-12-18T11:52:37.967Z,2.07
2022-12-18T11:55:13.924Z,2.04
2022-12-18T11:57:52.065Z,2.14
2022-12-18T12:00:21.648Z,2.15
2022-12-18T12:03:21.125Z,2.14
2022-12-18T12:05:59.649Z,2.16
2022-12-18T12:08:42.183Z,2.22
2022-12-18T12:11:19.611Z,2.22
2022-12-18T12:13:53.999Z,2.23
2022-12-18T12:16:27.293Z,2.19
2022-12-18T12:19:07.900Z,2.27
2022-12-18T12:21:42.582Z,2.30
2022-12-18T12:24:28.263Z,2.27
2022-12-18T12:27:03.178Z,2.32
2022-12-18T12:29:44.979Z,2.32
2022-12-18T12:32:27.330Z,2.31
2022-12-18T12:35:11.568Z,2.28
2022-12-18T12:37:49.652Z,2.29
2022-12-18T12:40:50.233Z,2.35
2022-12-18T12:43:22.396Z,2.38
2022-12-18T12:45:55.920Z,2.38
2022-12-18T12:48:35.884Z,2.40
2022-12-18T12:51:13.268Z,2.40
2022-12-18T12:53:43.196Z,2.44
2022-12-18T12:56:41.932Z,2.44
2022-12-18T12:59:18.185Z,2.39
2022-12-18T13:01:56.948Z,2.35
2022-12-18T13:04:33.413Z,2.37
2022-12-18T13:07:08.630Z,2.37
2022-12-18T13:10:17.252Z,2.40
2022-12-18T13:12:58.237Z,2.37
2022-12-18T13:15:32.729Z,2.39
2022-12-18T13:18:20.380Z,2.42
2022-12-18T13:20:55.348Z,2.42
2022-12-18T13:23:35.176Z,2.37
2022-12-18T13:26:33.534Z,2.37
2022-12-18T13:29:05.148Z,2.37
2022-12-18T13:32:10.176Z,2.39
2022-12-18T13:34:38.795Z,2.33
2022-12-18T13:37:44.594Z,2.36
2022-12-18T13:41:00.323Z,2.33
2022-12-18T13:43:44.618Z,2.38
2022-12-18T13:46:44.073Z,2.37
2022-12-18T13:49:24.992Z,2.32
2022-12-18T13:51:55.452Z,2.30
2022-12-18T13:54:29.994Z,2.31
2022-12-18T13:56:58.504Z,2.39
2022-12-18T13:59:34.833Z,2.30
2022-12-18T14:02:12.402Z,2.33
2022-12-18T14:04:40.761Z,2.31
2022-12-18T14:07:13.644Z,2.38
2022-12-18T14:09:46.305Z,2.32
2022-12-18T14:12:36.929Z,2.40
2022-12-18T14:15:13.470Z,2.36
2022-12-18T14:17:41.575Z,2.38
2022-12-18T14:20:15.377Z,2.40
2022-12-18T14:22:48.242Z,2.36
2022-12-18T14:25:19.464Z,2.46
2022-12-18T14:27:49.697Z,2.49
2022-12-18T14:30:39.121Z,2.44
2022-12-18T14:33:11.265Z,2.49
2022-12-18T14:35:40.968Z,2.51
2022-12-18T14:38:27.836Z,2.51
2022-12-18T14:40:57.908Z,2.53
2022-12-18T14:43:26.392Z,2.59
2022-12-18T14:45:56.396Z,2.60
2022-12-18T14:48:36.617Z,2.58
2022-12-18T14:51:07.922Z,2.56
2022-12-18T14:53:40.096Z,2.59
2022-12-18T14:56:19.390Z,2.63
2022-12-18T14:58:52.481Z,2.64
2022-12-18T15:01:28.458Z,2.66
2022-12-18T15:03:57.958Z,2.67
2022-12-18T15:06:35.511Z,2.75
2022-12-18T15:09:07.800Z,2.73
2022-12-18T15:11:45.832Z,2.77
2022-12-18T15:14:36.867Z,2.81
2022-12-18T15:17:16.576Z,2.78
2022-12-18T15:19:46.556Z,2.86
2022-12-18T15:22:23.861Z,2.85
2022-12-18T15:24:52.358Z,2.92
2022-12-18T15:27:26.965Z,2.89
2022-12-18T15:30:32.416Z,2.96
2022-12-18T15:33:25.724Z,2.96
2022-12-18T15:35:58.896Z,3.03
2022-12-18T15:38:28.828Z,3.04
2022-12-18T15:40:57.142Z,3.14
2022-12-18T15:43:34.996Z,3.08
2022-12-18T15:46:04.422Z,3.14
2022-12-18T15:48:35.534Z,3.15
2022-12-18T15:51:03.526Z,3.19
2022-12-18T15:53:34.711Z,3.26
2022-12-18T15:56:20.400Z,3.33
2022-12-18T15:58:48.782Z,3.31
2022-12-18T16:01:17.864Z,3.33
2022-12-18T16:03:47.410Z,3.38
2022-12-18T16:06:15.507Z,3.45
2022-12-18T16:08:43.656Z,3.46
2022-12-18T16:11:38.754Z,3.60
2022-12-18T16:14:18.973Z,3.60
2022-12-18T16:16:47.698Z,3.65
2022-12-18T16:19:17.368Z,3.71
2022-12-18T16:21:46.094Z,3.76
2022-12-18T16:24:17.249Z,3.83
2022-12-18T16:26:45.071Z,3.91
2022-12-18T16:29:13.130Z,3.92
2022-12-18T16:31:41.223Z,3.95
2022-12-18T16:34:13.549Z,4.05
2022-12-18T16:36:43.116Z,4.10
2022-12-18T16:39:11.361Z,4.11
2022-12-18T16:41:39.785Z,4.18
2022-12-18T16:44:09.445Z,4.22
2022-12-18T16:46:38.096Z,4.30
2022-12-18T16:49:07.856Z,4.27
2022-12-18T16:51:36.152Z,4.39
2022-12-18T16:54:09.728Z,4.47
2022-12-18T16:56:40.222Z,4.46
2022-12-18T16:59:10.122Z,4.56
2022-12-18T17:01:38.549Z,4.58
2022-12-18T17:04:11.044Z,4.59
2022-12-18T17:06:42.600Z,4.65
2022-12-18T17:09:15.660Z,4.71
2022-12-18T17:11:44.272Z,4.73
2022-12-18T17:14:15.453Z,4.79
2022-12-18T17:16:43.752Z,4.89
2022-12-18T17:19:16.787Z,4.89
2022-12-18T17:21:46.076Z,4.99
2022-12-18T17:24:15.710Z,5.05
2022-12-18T17:26:45.702Z,5.03
2022-12-18T17:29:17.900Z,5.10
2022-12-18T17:31:48.451Z,5.09
2022-12-18T17:34:16.850Z,5.10
2022-12-18T17:36:45.013Z,5.20
2022-12-18T17:39:19.765Z,5.26
2022-12-18T17:41:48.915Z,5.35
2022-12-18T17:44:17.906Z,5.30
2022-12-18T17:46:46.624Z,5.29
2022-12-18T17:49:15.327Z,5.33
2022-12-18T17:51:43.566Z,5.36
2022-12-18T17:54:12.627Z,5.44
2022-12-18T17:56:42.240Z,5.49
2022-12-18T17:59:11.050Z,5.45
2022-12-18T18:01:44.395Z,5.51
2022-12-18T18:04:38.510Z,5.47
2022-12-18T18:07:06.653Z,5.53
2022-12-18T18:09:34.859Z,5.64
2022-12-18T18:12:22.280Z,5.64
2022-12-18T18:14:50.721Z,5.65
2022-12-18T18:17:19.813Z,5.66
2022-12-18T18:19:49.788Z,5.73
2022-12-18T18:22:18.733Z,5.74
2022-12-18T18:24:47.170Z,5.75
2022-12-18T18:27:16.901Z,5.84
2022-12-18T18:29:45.441Z,5.83
2022-12-18T18:32:13.523Z,5.86
2022-12-18T18:34:41.855Z,5.87
2022-12-18T18:37:11.125Z,5.87
2022-12-18T18:39:39.426Z,5.85
2022-12-18T18:42:07.559Z,5.87
2022-12-18T18:44:37.023Z,5.95
2022-12-18T18:47:08.596Z,5.97
2022-12-18T18:49:37.875Z,6.01
2022-12-18T18:52:07.252Z,6.02
2022-12-18T18:54:36.460Z,6.09
2022-12-18T18:57:20.456Z,6.08
2022-12-18T18:59:50.619Z,6.08
2022-12-18T19:02:19.076Z,6.13
2022-12-18T19:04:48.067Z,6.17
2022-12-18T19:07:22.294Z,6.09
2022-12-18T19:10:05.249Z,6.18
2022-12-18T19:13:16.208Z,6.17
2022-12-18T19:15:45.958Z,6.19
2022-12-18T19:18:40.680Z,6.17
2022-12-18T19:21:09.472Z,6.20
2022-12-18T19:23:37.680Z,6.19
2022-12-18T19:26:28.462Z,6.19
2022-12-18T19:29:02.115Z,6.30
2022-12-18T19:31:35.561Z,6.31
2022-12-18T19:34:05.252Z,6.34
2022-12-18T19:36:34.991Z,6.34
2022-12-18T19:39:03.871Z,6.33
2022-12-18T19:41:32.937Z,6.39
2022-12-18T19:44:02.235Z,6.50
2022-12-18T19:46:40.330Z,6.51
2022-12-18T19:49:10.820Z,6.50
2022-12-18T19:51:39.537Z,6.52
2022-12-18T19:54:16.676Z,6.60
2022-12-18T19:56:46.506Z,6.62
2022-12-18T19:59:15.129Z,6.64
2022-12-18T20:01:44.613Z,6.68
2022-12-18T20:04:12.708Z,6.72
2022-12-18T20:06:49.214Z,6.73
2022-12-18T20:09:18.208Z,6.78
2022-12-18T20:11:47.632Z,6.73
2022-12-18T20:14:23.584Z,6.82
2022-12-18T20:16:53.751Z,6.85
2022-12-18T20:19:23.044Z,6.94
2022-12-18T20:21:51.274Z,6.98
2022-12-18T20:24:19.558Z,6.99
2022-12-18T20:26:47.690Z,7.03
2022-12-18T20:29:15.808Z,7.08
2022-12-18T20:31:44.008Z,7.08
2022-12-18T20:34:13.398Z,7.09
2022-12-18T20:36:41.960Z,7.18
2022-12-18T20:39:10.890Z,7.18
2022-12-18T20:41:40.682Z,7.19
2022-12-18T20:44:22.021Z,7.25
2022-12-18T20:46:52.751Z,7.31
2022-12-18T20:49:22.449Z,7.35
2022-12-18T20:51:56.173Z,7.39
2022-12-18T20:54:26.099Z,7.44
2022-12-18T20:56:54.219Z,7.47
2022-12-18T20:59:25.500Z,7.49
2022-12-18T21:01:53.953Z,7.51
2022-12-18T21:04:23.958Z,7.54
2022-12-18T21:07:00.716Z,7.61
2022-12-18T21:09:38.066Z,7.67
2022-12-18T21:12:21.928Z,7.70
2022-12-18T21:14:50.023Z,7.70
2022-12-18T21:17:18.413Z,7.75
2022-12-18T21:19:47.722Z,7.75
2022-12-18T21:22:16.828Z,7.83
2022-12-18T21:24:44.966Z,7.79
2022-12-18T21:27:14.219Z,7.88
2022-12-18T21:29:45.846Z,7.95
2022-12-18T21:32:14.853Z,7.94
2022-12-18T21:34:47.866Z,7.95
2022-12-18T21:37:17.714Z,7.91
2022-12-18T21:39:47.489Z,8.02
2022-12-18T21:42:35.017Z,8.02
2022-12-18T21:45:03.144Z,7.99
2022-12-18T21:47:31.202Z,7.98
2022-12-18T21:49:59.246Z,8.04
2022-12-18T21:52:32.372Z,8.02
2022-12-18T21:55:10.222Z,8.13
2022-12-18T21:57:39.629Z,8.11
2022-12-18T22:00:19.024Z,8.21
2022-12-18T22:03:05.659Z,8.23
2022-12-18T22:05:36.524Z,8.26
2022-12-18T22:08:06.947Z,8.21
2022-12-18T22:10:38.529Z,8.35
2022-12-18T22:13:07.125Z,8.27
2022-12-18T22:15:35.201Z,8.33
2022-12-18T22:18:03.437Z,8.34
2022-12-18T22:20:31.681Z,8.36
2022-12-18T22:23:01.084Z,8.37
2022-12-18T22:25:38.931Z,8.36
2022-12-18T22:28:25.155Z,8.40
2022-12-18T22:30:55.976Z,8.48
2022-12-18T22:33:28.688Z,8.46
2022-12-18T22:35:57.008Z,8.48
2022-12-18T22:38:24.927Z,8.52
2022-12-18T22:40:55.854Z,8.57
2022-12-18T22:43:23.846Z,8.72
2022-12-18T22:45:51.826Z,8.68
2022-12-18T22:48:19.963Z,8.65
2022-12-18T22:50:48.111Z,8.70
2022-12-18T22:53:17.846Z,8.72
2022-12-18T22:55:46.081Z,8.78
2022-12-18T22:58:15.519Z,8.81
2022-12-18T23:00:43.523Z,8.82
2022-12-18T23:03:11.685Z,8.89
2022-12-18T23:05:39.800Z,8.89
2022-12-18T23:08:07.823Z,8.86
2022-12-18T23:10:39.424Z,8.97
2022-12-18T23:13:07.587Z,9.00
2022-12-18T23:15:42.437Z,9.00
2022-12-18T23:18:12.624Z,9.00
2022-12-18T23:20:40.771Z,9.06
2022-12-18T23:23:09.840Z,9.14
2022-12-18T23:25:37.983Z,9.11
2022-12-18T23:28:06.399Z,9.20
2022-12-18T23:30:34.543Z,9.20
2022-12-18T23:33:03.998Z,9.25
2022-12-18T23:35:32.232Z,9.27
2022-12-18T23:38:00.807Z,9.26
2022-12-18T23:40:32.953Z,9.28
2022-12-18T23:43:01.247Z,9.38
2022-12-18T23:45:29.851Z,9.36
2022-12-18T23:47:58.047Z,9.38
2022-12-18T23:50:29.278Z,9.42
2022-12-18T23:53:03.750Z,9.48
2022-12-18T23:56:00.699Z,9.51
2022-12-18T23:58:30.134Z,9.53
